Time;durP1;ratioP1;P1;durP2;ratioP2;P2;SDS_P1;SDS_P2;PMS_P1;PMS_P2;Temp;Humidity;BMP_temperature;BMP_pressure;BME280_temperature;BME280_humidity;BME280_pressure;Samples;Min_cycle;Max_cycle;Signal;HPM_P1;HPM_P2
2024/03/22 00:01:12;;;;;;;1.75;1.55;;;9.40;99.90;;;;;;4978726;28;20031;-72
2024/03/22 00:03:38;;;;;;;1.65;1.52;;;9.50;99.90;;;;;;4983226;28;20142;-72
2024/03/22 00:06:04;;;;;;;2.05;1.95;;;9.50;99.90;;;;;;4987181;28;20500;-72
2024/03/22 00:08:31;;;;;;;0.80;0.80;;;9.40;99.90;;;;;;4969590;28;20046;-72
2024/03/22 00:10:56;;;;;;;2.72;1.67;;;9.50;99.90;;;;;;4983069;28;20043;-72
2024/03/22 00:13:22;;;;;;;1.50;1.40;;;9.50;99.90;;;;;;4971236;28;20471;-72
2024/03/22 00:15:48;;;;;;;3.05;1.77;;;9.50;99.90;;;;;;4984536;28;20480;-72
2024/03/22 00:18:14;;;;;;;2.83;2.70;;;9.50;99.90;;;;;;4984128;28;20058;-71
2024/03/22 00:20:39;;;;;;;1.58;1.48;;;9.50;99.90;;;;;;4964952;28;20047;-72
2024/03/22 00:23:05;;;;;;;1.38;1.33;;;9.50;99.90;;;;;;4971486;28;20037;-72
2024/03/22 00:25:32;;;;;;;2.28;1.48;;;9.50;99.90;;;;;;4954464;28;20053;-72
2024/03/22 00:27:57;;;;;;;2.08;1.80;;;9.50;99.90;;;;;;4983629;28;20555;-72
2024/03/22 00:30:23;;;;;;;0.95;0.95;;;9.40;99.90;;;;;;4965973;28;20173;-72
2024/03/22 00:32:48;;;;;;;1.60;1.50;;;9.40;99.90;;;;;;4982834;28;20407;-71
2024/03/22 00:35:14;;;;;;;1.92;1.83;;;9.40;99.90;;;;;;4983099;28;20184;-72
2024/03/22 00:37:40;;;;;;;0.68;0.63;;;9.40;99.90;;;;;;4990348;28;20092;-71
2024/03/22 00:40:06;;;;;;;5.47;2.67;;;9.40;99.90;;;;;;4973983;28;20149;-72
2024/03/22 00:42:32;;;;;;;2.72;1.75;;;9.50;99.90;;;;;;4976093;28;20052;-71
2024/03/22 00:44:58;;;;;;;1.30;1.23;;;9.50;99.90;;;;;;4985889;28;20034;-72
2024/03/22 00:47:23;;;;;;;;;;;9.50;99.90;;;;;;4990390;28;20041;-71
2024/03/22 00:49:49;;;;;;;0.93;0.80;;;9.50;99.90;;;;;;4987384;28;20283;-72
2024/03/22 00:52:15;;;;;;;1.83;1.73;;;9.50;99.90;;;;;;4980333;28;20046;-71
2024/03/22 00:54:41;;;;;;;0.90;0.90;;;9.50;99.90;;;;;;4982996;28;20049;-71
2024/03/22 00:57:06;;;;;;;1.75;1.65;;;9.50;99.90;;;;;;4986685;28;20046;-72
2024/03/22 00:59:32;;;;;;;1.77;1.67;;;9.40;99.90;;;;;;4971571;28;20099;-72
2024/03/22 01:01:58;;;;;;;1.23;0.90;;;9.40;99.90;;;;;;4989862;28;20046;-72
2024/03/22 01:04:24;;;;;;;1.67;1.58;;;9.40;99.90;;;;;;4973930;28;20030;-72
2024/03/22 01:06:49;;;;;;;1.45;1.35;;;9.50;99.90;;;;;;4986513;28;20034;-72
2024/03/22 01:09:15;;;;;;;3.10;2.10;;;9.50;99.90;;;;;;4983698;28;20049;-72
2024/03/22 01:11:41;;;;;;;1.48;1.38;;;9.50;99.90;;;;;;4971386;28;20041;-72
2024/03/22 01:14:07;;;;;;;2.58;2.03;;;9.50;99.90;;;;;;4984900;28;20392;-72
2024/03/22 01:16:32;;;;;;;1.25;0.65;;;9.50;99.90;;;;;;4981167;28;20033;-73
2024/03/22 01:18:58;;;;;;;5.00;2.50;;;9.50;99.90;;;;;;4987914;28;20085;-73
2024/03/22 01:21:25;;;;;;;1.30;1.20;;;9.50;99.90;;;;;;4987363;28;20042;-72
2024/03/22 01:23:53;;;;;;;1.50;1.38;;;9.50;99.90;;;;;;4982260;28;20281;-71
2024/03/22 01:26:19;;;;;;;2.58;2.47;;;9.50;99.90;;;;;;4987348;28;20040;-72
2024/03/22 01:28:46;;;;;;;1.83;1.73;;;9.60;99.90;;;;;;4984512;28;20037;-72
2024/03/22 01:31:11;;;;;;;0.90;0.85;;;9.50;99.90;;;;;;4981913;28;20460;-72
2024/03/22 01:33:37;;;;;;;2.28;2.17;;;9.50;99.90;;;;;;4965368;28;20080;-72
2024/03/22 01:36:05;;;;;;;1.08;1.02;;;9.50;99.90;;;;;;4988584;28;20463;-72
2024/03/22 01:38:31;;;;;;;3.40;3.10;;;9.50;99.90;;;;;;4989276;28;20049;-72
2024/03/22 01:40:56;;;;;;;4.68;2.25;;;9.50;99.90;;;;;;4977857;28;20047;-72
2024/03/22 01:43:22;;;;;;;0.55;0.55;;;9.60;99.90;;;;;;4986138;28;20030;-72
2024/03/22 01:45:48;;;;;;;2.50;1.70;;;9.60;99.90;;;;;;4985869;28;20049;-72
2024/03/22 01:48:14;;;;;;;3.00;2.30;;;9.60;99.90;;;;;;4969864;28;20065;-72
2024/03/22 01:50:40;;;;;;;5.72;2.45;;;9.70;99.90;;;;;;4965525;28;20042;-71
2024/03/22 01:53:06;;;;;;;;;;;9.60;99.90;;;;;;4968804;28;20100;-71
2024/03/22 01:55:31;;;;;;;2.28;1.95;;;9.70;99.90;;;;;;4986168;28;19925;-71
2024/03/22 01:57:57;;;;;;;1.98;1.88;;;9.70;99.90;;;;;;4969387;28;20041;-71
2024/03/22 02:00:23;;;;;;;;;;;9.70;99.90;;;;;;5004185;28;20073;-71
2024/03/22 02:02:49;;;;;;;1.77;1.67;;;9.70;99.90;;;;;;4985578;28;20391;-71
2024/03/22 02:05:16;;;;;;;1.70;1.60;;;9.80;99.90;;;;;;4985907;28;21267;-72
2024/03/22 02:07:42;;;;;;;3.15;2.80;;;9.70;99.90;;;;;;4984136;28;20037;-72
2024/03/22 02:10:10;;;;;;;1.38;1.23;;;9.70;99.90;;;;;;4961438;28;20473;-72
2024/03/22 02:12:37;;;;;;;2.25;2.15;;;9.70;99.90;;;;;;4982256;28;20037;-82
2024/03/22 02:15:03;;;;;;;3.13;2.92;;;9.70;99.90;;;;;;4982955;28;20133;-82
2024/03/22 02:17:29;;;;;;;3.08;2.83;;;9.80;99.90;;;;;;4969144;28;20168;-82
2024/03/22 02:19:54;;;;;;;1.88;1.35;;;9.80;99.90;;;;;;4987974;28;20136;-82
2024/03/22 02:22:20;;;;;;;4.70;1.88;;;9.80;99.90;;;;;;4988581;28;20082;-81
2024/03/22 02:24:46;;;;;;;3.38;3.13;;;9.80;99.90;;;;;;4968269;28;20039;-82
2024/03/22 02:27:11;;;;;;;2.58;1.58;;;9.80;99.90;;;;;;4985584;28;20054;-81
2024/03/22 02:29:37;;;;;;;1.17;1.08;;;9.80;99.90;;;;;;4983092;28;20069;-83
2024/03/22 02:32:03;;;;;;;3.10;1.80;;;9.80;99.90;;;;;;4967572;28;20432;-83
2024/03/22 02:34:29;;;;;;;3.35;3.15;;;9.80;99.90;;;;;;4977652;28;20125;-84
2024/03/22 02:36:55;;;;;;;2.88;2.25;;;10.70;99.90;;;;;;4982264;28;20468;-83
2024/03/22 02:39:20;;;;;;;3.67;2.03;;;9.80;99.90;;;;;;4982760;28;20030;-83
2024/03/22 02:41:46;;;;;;;1.67;1.35;;;9.80;99.90;;;;;;4968563;28;20049;-83
2024/03/22 02:44:12;;;;;;;4.25;2.65;;;9.80;99.90;;;;;;4980292;28;20037;-84
2024/03/22 02:46:37;;;;;;;6.45;0.82;;;9.80;99.90;;;;;;4981649;28;20193;-83
2024/03/22 02:49:03;;;;;;;5.90;3.03;;;10.00;99.90;;;;;;4986833;28;20045;-84
2024/03/22 02:51:29;;;;;;;1.05;1.02;;;9.90;99.90;;;;;;4981605;28;20042;-83
2024/03/22 02:53:54;;;;;;;2.97;2.83;;;9.80;99.90;;;;;;4979745;28;20045;-83
2024/03/22 02:56:20;;;;;;;1.80;1.70;;;9.90;99.90;;;;;;4944033;28;20242;-83
2024/03/22 02:58:46;;;;;;;1.35;1.25;;;9.80;99.90;;;;;;4983669;28;20034;-83
2024/03/22 03:01:11;;;;;;;2.33;2.15;;;9.90;99.90;;;;;;4965821;28;20124;-82
2024/03/22 03:03:37;;;;;;;1.67;1.58;;;9.90;99.90;;;;;;4945664;28;20100;-82
2024/03/22 03:06:02;;;;;;;17.48;4.72;;;9.90;99.90;;;;;;4978962;28;20034;-84
2024/03/22 03:08:28;;;;;;;2.33;2.22;;;9.90;99.90;;;;;;4982212;28;20475;-83
2024/03/22 03:10:54;;;;;;;1.33;1.25;;;10.60;99.90;;;;;;4966165;28;20077;-82
2024/03/22 03:13:19;;;;;;;1.73;1.63;;;9.90;99.90;;;;;;4993495;28;20043;-81
2024/03/22 03:15:45;;;;;;;3.22;2.83;;;10.00;99.90;;;;;;4982292;28;20132;-83
2024/03/22 03:18:11;;;;;;;1.67;1.58;;;10.00;99.90;;;;;;4946188;28;20081;-83
2024/03/22 03:20:37;;;;;;;2.38;2.17;;;10.00;99.90;;;;;;4966630;28;20045;-82
2024/03/22 03:23:03;;;;;;;7.05;2.00;;;10.00;99.90;;;;;;4983367;28;20593;-72
2024/03/22 03:25:29;;;;;;;2.17;1.75;;;10.00;99.90;;;;;;4981021;28;20097;-72
2024/03/22 03:27:54;;;;;;;4.75;2.47;;;10.50;99.90;;;;;;4981876;28;20085;-71
2024/03/22 03:30:20;;;;;;;2.08;1.98;;;10.00;99.90;;;;;;4969527;28;20504;-71
2024/03/22 03:32:46;;;;;;;7.05;3.85;;;10.00;99.90;;;;;;4964555;28;20034;-71
2024/03/22 03:35:11;;;;;;;2.58;2.38;;;10.40;99.90;;;;;;4967646;28;20039;-71
2024/03/22 03:37:37;;;;;;;5.38;3.40;;;10.00;99.90;;;;;;4955174;28;20454;-71
2024/03/22 03:40:04;;;;;;;5.22;4.57;;;10.00;99.90;;;;;;4966661;28;20050;-71
2024/03/22 03:42:29;;;;;;;4.47;1.90;;;10.00;99.90;;;;;;4979219;28;20043;-71
2024/03/22 03:44:55;;;;;;;1.73;1.63;;;10.10;99.90;;;;;;4980757;28;20049;-71
2024/03/22 03:47:21;;;;;;;2.80;2.47;;;10.10;99.90;;;;;;4983145;28;20116;-71
2024/03/22 03:49:47;;;;;;;3.25;3.05;;;10.20;99.90;;;;;;4947510;28;20038;-71
2024/03/22 03:52:13;;;;;;;1.80;1.70;;;10.10;99.90;;;;;;4975109;28;20507;-72
2024/03/22 03:54:38;;;;;;;5.18;2.50;;;10.20;99.90;;;;;;4969331;28;20056;-71
2024/03/22 03:57:04;;;;;;;4.20;2.72;;;10.30;99.90;;;;;;4978838;28;20506;-72
2024/03/22 03:59:30;;;;;;;2.60;2.40;;;10.40;99.90;;;;;;4984491;28;20528;-72
2024/03/22 04:01:55;;;;;;;3.25;1.88;;;10.30;99.90;;;;;;4986455;28;20345;-72
2024/03/22 04:04:21;;;;;;;2.25;1.95;;;10.20;99.90;;;;;;4985294;28;20041;-72
2024/03/22 04:06:47;;;;;;;5.35;3.20;;;10.20;99.90;;;;;;4981634;28;20489;-72
2024/03/22 04:09:13;;;;;;;2.10;1.80;;;10.20;99.90;;;;;;4979940;28;20552;-72
2024/03/22 04:11:38;;;;;;;3.60;1.77;;;10.30;99.90;;;;;;4977094;28;20046;-72
2024/03/22 04:14:05;;;;;;;1.90;1.80;;;10.30;99.90;;;;;;4969353;28;20519;-72
2024/03/22 04:16:31;;;;;;;3.25;3.05;;;10.30;99.90;;;;;;4987145;28;20050;-73
2024/03/22 04:18:57;;;;;;;1.65;1.38;;;10.30;99.90;;;;;;4975179;28;20511;-72
2024/03/22 04:21:23;;;;;;;2.75;2.55;;;10.40;99.90;;;;;;4960014;28;20034;-72
2024/03/22 04:23:48;;;;;;;1.73;1.63;;;10.40;99.90;;;;;;4979394;28;20538;-72
2024/03/22 04:26:15;;;;;;;7.00;2.53;;;10.30;99.90;;;;;;4987226;28;20042;-72
2024/03/22 04:28:41;;;;;;;1.83;1.50;;;10.30;99.90;;;;;;4984451;28;20038;-72
2024/03/22 04:31:08;;;;;;;2.35;1.30;;;10.30;99.90;;;;;;5006789;28;20049;-72
2024/03/22 04:33:35;;;;;;;1.60;1.10;;;10.30;99.90;;;;;;4972143;28;20053;-72
2024/03/22 04:36:01;;;;;;;2.45;2.25;;;10.30;99.90;;;;;;4970351;28;20045;-72
2024/03/22 04:38:27;;;;;;;7.60;2.40;;;10.30;99.90;;;;;;4983071;28;20420;-72
2024/03/22 04:40:54;;;;;;;3.17;2.85;;;10.30;99.90;;;;;;4984749;28;20054;-72
2024/03/22 04:43:20;;;;;;;1.95;1.80;;;10.50;99.90;;;;;;4983245;28;20046;-72
2024/03/22 04:45:47;;;;;;;1.40;1.30;;;10.30;99.90;;;;;;4987334;28;20395;-72
2024/03/22 04:48:14;;;;;;;2.38;2.17;;;10.30;99.90;;;;;;4971200;28;20121;-72
2024/03/22 04:50:40;;;;;;;2.35;2.20;;;10.30;99.90;;;;;;4988004;28;20041;-72
2024/03/22 04:53:06;;;;;;;1.35;1.25;;;10.30;99.90;;;;;;4972196;28;20095;-72
2024/03/22 04:55:35;;;;;;;1.50;1.40;;;10.20;99.90;;;;;;4985193;28;20049;-72
2024/03/22 04:58:01;;;;;;;4.32;1.90;;;10.20;99.90;;;;;;4970223;28;20030;-72
2024/03/22 05:00:30;;;;;;;2.40;2.20;;;10.20;99.90;;;;;;4984698;28;20045;-72
2024/03/22 05:02:55;;;;;;;5.55;3.88;;;10.20;99.90;;;;;;4989353;28;20046;-72
2024/03/22 05:05:21;;;;;;;2.72;2.53;;;10.30;99.90;;;;;;4971337;28;20045;-72
2024/03/22 05:07:47;;;;;;;3.80;2.67;;;10.20;99.90;;;;;;4983648;28;20571;-72
2024/03/22 05:10:13;;;;;;;1.55;1.45;;;10.20;99.90;;;;;;4968243;28;20042;-72
2024/03/22 05:12:39;;;;;;;2.97;2.60;;;9.40;99.90;;;;;;4963704;28;20508;-72
2024/03/22 05:15:06;;;;;;;2.22;2.03;;;10.20;99.90;;;;;;4985110;28;20049;-72
2024/03/22 05:17:33;;;;;;;2.50;2.40;;;10.20;99.90;;;;;;5000463;28;20181;-72
2024/03/22 05:19:59;;;;;;;2.60;1.70;;;10.20;99.90;;;;;;4977715;28;20094;-72
2024/03/22 05:22:26;;;;;;;1.52;1.42;;;10.30;99.90;;;;;;4964683;28;20061;-72
2024/03/22 05:24:51;;;;;;;0.93;0.93;;;10.20;99.90;;;;;;4948871;28;20034;-72
2024/03/22 05:27:18;;;;;;;5.68;2.53;;;10.20;99.90;;;;;;4965773;28;20038;-72
2024/03/22 05:29:44;;;;;;;1.45;1.20;;;10.20;99.90;;;;;;4949920;28;20042;-72
2024/03/22 05:32:09;;;;;;;4.85;3.17;;;10.20;99.90;;;;;;4945428;28;20054;-73
2024/03/22 05:34:36;;;;;;;3.65;1.75;;;10.20;99.90;;;;;;4969820;28;20056;-73
2024/03/22 05:37:02;;;;;;;4.20;2.20;;;10.20;99.90;;;;;;4947469;28;20045;-73
2024/03/22 05:39:28;;;;;;;;;;;10.20;99.90;;;;;;4963581;28;20129;-73
2024/03/22 05:41:54;;;;;;;2.15;1.95;;;10.20;99.90;;;;;;4948471;28;20491;-73
2024/03/22 05:44:21;;;;;;;;;;;10.20;99.90;;;;;;4957160;28;20031;-72
2024/03/22 05:46:47;;;;;;;0.50;0.50;;;10.20;99.90;;;;;;4973294;28;19922;-73
2024/03/22 05:49:12;;;;;;;2.70;1.08;;;10.20;99.90;;;;;;4940779;28;20046;-72
2024/03/22 05:51:38;;;;;;;2.08;1.95;;;10.20;99.90;;;;;;4967034;28;20038;-72
2024/03/22 05:54:04;;;;;;;2.25;2.15;;;10.20;99.90;;;;;;4951729;28;20046;-72
2024/03/22 05:56:30;;;;;;;1.13;1.10;;;10.10;99.90;;;;;;4957375;28;20141;-72
2024/03/22 05:58:55;;;;;;;3.17;2.40;;;10.10;99.90;;;;;;4958980;28;20088;-72
2024/03/22 06:01:21;;;;;;;0.98;0.95;;;10.00;99.90;;;;;;4948483;28;20093;-71
2024/03/22 06:03:47;;;;;;;2.70;2.53;;;10.00;99.90;;;;;;4945754;28;20042;-72
2024/03/22 06:06:12;;;;;;;3.05;2.42;;;10.00;99.90;;;;;;4961495;28;20670;-72
2024/03/22 06:08:39;;;;;;;2.50;1.15;;;9.90;99.90;;;;;;4960351;28;20077;-72
2024/03/22 06:11:07;;;;;;;2.45;1.58;;;9.90;99.90;;;;;;4948493;28;20050;-72
2024/03/22 06:13:33;;;;;;;1.98;1.13;;;9.90;99.90;;;;;;4967463;28;20074;-71
2024/03/22 06:15:58;;;;;;;;;;;9.80;99.90;;;;;;4948646;28;20074;-72
2024/03/22 06:18:24;;;;;;;0.90;0.90;;;9.80;99.90;;;;;;4969158;28;20008;-73
2024/03/22 06:20:50;;;;;;;2.28;1.95;;;9.80;99.90;;;;;;4989212;28;20042;-71
2024/03/22 06:23:16;;;;;;;1.23;1.20;;;9.80;99.90;;;;;;4956232;28;20038;-72
2024/03/22 06:25:54;;;;;;;1.30;1.20;;;9.80;99.90;;;;;;4985957;28;20045;-73
2024/03/22 06:28:22;;;;;;;2.13;2.03;;;9.70;99.90;;;;;;4986450;28;20059;-73
2024/03/22 06:30:47;;;;;;;1.48;1.38;;;9.70;99.90;;;;;;4983555;28;20067;-73
2024/03/22 06:33:13;;;;;;;0.50;0.50;;;9.70;99.90;;;;;;4971310;28;20073;-72
2024/03/22 06:35:40;;;;;;;1.13;0.98;;;9.80;99.90;;;;;;4973927;28;20051;-73
2024/03/22 06:38:06;;;;;;;1.73;1.63;;;9.80;99.90;;;;;;4982874;28;20176;-73
2024/03/22 06:40:32;;;;;;;1.75;1.65;;;9.70;99.90;;;;;;4978022;28;20124;-72
2024/03/22 06:42:58;;;;;;;0.75;0.75;;;9.70;99.90;;;;;;4976308;28;20132;-71
2024/03/22 06:45:24;;;;;;;0.65;0.65;;;9.60;99.90;;;;;;4991018;28;20121;-72
2024/03/22 06:47:49;;;;;;;0.95;0.95;;;9.70;99.90;;;;;;4970507;28;20096;-71
2024/03/22 06:50:17;;;;;;;1.98;1.88;;;9.60;99.90;;;;;;4980825;28;20050;-71
2024/03/22 06:52:43;;;;;;;2.55;2.35;;;9.60;99.90;;;;;;4987379;28;20536;-72
2024/03/22 06:55:09;;;;;;;;;;;9.60;99.90;;;;;;4970579;28;20077;-73
2024/03/22 06:57:34;;;;;;;0.98;0.98;;;9.60;99.90;;;;;;4969364;28;19969;-73
2024/03/22 07:00:00;;;;;;;1.13;1.00;;;9.70;99.90;;;;;;4966058;28;20046;-73
2024/03/22 07:02:26;;;;;;;1.15;1.15;;;9.60;99.90;;;;;;4973947;28;20552;-73
2024/03/22 07:04:52;;;;;;;2.60;2.50;;;9.60;99.90;;;;;;4968241;28;20493;-72
2024/03/22 07:07:18;;;;;;;1.17;1.10;;;9.60;99.90;;;;;;4975785;28;20544;-73
2024/03/22 07:09:44;;;;;;;1.73;1.63;;;9.60;99.90;;;;;;4974059;28;20050;-72
2024/03/22 07:12:10;;;;;;;1.13;1.08;;;9.60;99.90;;;;;;4961013;28;20076;-73
2024/03/22 07:14:35;;;;;;;0.70;0.70;;;9.60;99.90;;;;;;4953080;28;20577;-73
2024/03/22 07:17:01;;;;;;;1.10;1.10;;;9.60;99.90;;;;;;4980652;28;20038;-72
2024/03/22 07:19:28;;;;;;;2.40;2.30;;;9.70;99.90;;;;;;4963351;28;20057;-73
2024/03/22 07:21:54;;;;;;;2.35;2.22;;;9.60;99.90;;;;;;4969744;28;20100;-71
2024/03/22 07:24:23;;;;;;;0.70;0.70;;;9.80;99.90;;;;;;4967704;28;20435;-71
2024/03/22 07:26:49;;;;;;;1.00;1.00;;;9.90;99.90;;;;;;4969794;28;20047;-72
2024/03/22 07:29:15;;;;;;;2.65;0.75;;;9.60;99.90;;;;;;4971452;28;20041;-72
2024/03/22 07:31:41;;;;;;;0.90;0.85;;;9.50;99.90;;;;;;4957796;28;20081;-72
2024/03/22 07:34:07;;;;;;;0.57;0.57;;;9.60;99.90;;;;;;4969288;28;20058;-72
2024/03/22 07:36:37;;;;;;;1.05;0.93;;;9.60;99.90;;;;;;4978607;28;20100;-70
2024/03/22 07:39:05;;;;;;;0.82;0.82;;;9.70;99.90;;;;;;4969714;28;20047;-71
2024/03/22 07:41:32;;;;;;;0.50;0.50;;;9.70;99.90;;;;;;4979752;28;20054;-72
2024/03/22 07:44:01;;;;;;;0.85;0.85;;;9.60;99.90;;;;;;4952270;28;20125;-72
2024/03/22 07:46:27;;;;;;;0.88;0.88;;;9.60;99.90;;;;;;4975160;28;20042;-71
2024/03/22 07:48:53;;;;;;;0.90;0.80;;;9.70;99.90;;;;;;4964034;28;20168;-71
2024/03/22 07:51:19;;;;;;;0.98;0.90;;;9.70;99.90;;;;;;4965046;28;20058;-72
2024/03/22 07:53:45;;;;;;;1.85;1.75;;;9.60;99.90;;;;;;4969307;28;20125;-71
2024/03/22 07:56:11;;;;;;;2.15;2.05;;;9.60;99.90;;;;;;4959157;28;20595;-72
2024/03/22 07:58:37;;;;;;;;;;;9.80;99.90;;;;;;4974855;28;20508;-71
2024/03/22 08:01:03;;;;;;;0.65;0.65;;;9.60;99.90;;;;;;4983385;28;20287;-71
2024/03/22 08:03:29;;;;;;;0.60;0.60;;;9.60;99.90;;;;;;4975165;28;20039;-72
2024/03/22 08:05:54;;;;;;;1.08;1.08;;;9.60;99.90;;;;;;4976459;28;20050;-72
2024/03/22 08:08:20;;;;;;;0.95;0.95;;;9.60;99.90;;;;;;4956946;28;20038;-71
2024/03/22 08:10:46;;;;;;;1.25;1.15;;;9.60;99.90;;;;;;4961225;28;20098;-71
2024/03/22 08:13:12;;;;;;;1.40;0.95;;;9.60;99.90;;;;;;4979877;28;20042;-71
2024/03/22 08:15:37;;;;;;;0.85;0.85;;;9.60;99.90;;;;;;4976251;28;20066;-72
2024/03/22 08:18:03;;;;;;;0.60;0.60;;;9.60;99.90;;;;;;4980556;28;20069;-72
2024/03/22 08:20:30;;;;;;;0.90;0.90;;;9.60;99.90;;;;;;4997787;28;20060;-73
2024/03/22 08:22:55;;;;;;;0.90;0.90;;;9.60;99.90;;;;;;4982521;28;20077;-74
2024/03/22 08:25:23;;;;;;;2.42;2.22;;;9.60;99.90;;;;;;4965849;28;20152;-73
2024/03/22 08:27:49;;;;;;;1.42;1.33;;;9.60;99.90;;;;;;4979293;28;20034;-74
2024/03/22 08:30:14;;;;;;;1.10;1.10;;;9.60;99.90;;;;;;4973946;28;20057;-72
2024/03/22 08:32:40;;;;;;;0.85;0.85;;;9.60;99.90;;;;;;4971315;28;20121;-73
2024/03/22 08:35:06;;;;;;;1.20;1.00;;;9.60;99.90;;;;;;4958622;28;20477;-72
2024/03/22 08:37:34;;;;;;;1.67;1.58;;;9.60;99.90;;;;;;4953811;28;20145;-73
2024/03/22 08:39:59;;;;;;;0.50;0.50;;;9.60;99.90;;;;;;4982374;28;20129;-73
2024/03/22 08:42:25;;;;;;;0.82;0.82;;;9.80;99.90;;;;;;4960926;28;20135;-73
2024/03/22 08:44:51;;;;;;;0.55;0.55;;;9.70;99.90;;;;;;4970752;28;20034;-73
2024/03/22 08:47:16;;;;;;;0.73;0.70;;;9.60;99.90;;;;;;4957985;28;20515;-73
2024/03/22 08:49:44;;;;;;;1.40;1.17;;;9.60;99.90;;;;;;4976259;28;20493;-73
2024/03/22 08:52:10;;;;;;;1.75;1.67;;;9.60;99.90;;;;;;4961661;28;20053;-73
2024/03/22 08:54:35;;;;;;;1.08;1.00;;;9.70;99.90;;;;;;4977786;28;20046;-73
2024/03/22 08:57:01;;;;;;;0.88;0.88;;;9.70;99.90;;;;;;4987214;28;20504;-73
2024/03/22 08:59:27;;;;;;;1.50;1.45;;;9.70;99.90;;;;;;4982273;28;20077;-72
2024/03/22 09:01:53;;;;;;;0.60;0.60;;;9.70;99.90;;;;;;4955073;28;20047;-73
2024/03/22 09:04:19;;;;;;;0.75;0.70;;;9.70;99.90;;;;;;4977880;28;20042;-73
2024/03/22 09:06:45;;;;;;;0.65;0.65;;;9.70;99.90;;;;;;4962661;28;20061;-73
2024/03/22 09:09:11;;;;;;;0.57;0.57;;;9.70;99.90;;;;;;4981509;28;20031;-73
2024/03/22 09:11:36;;;;;;;;;;;9.70;99.90;;;;;;4978049;28;20049;-73
2024/03/22 09:14:02;;;;;;;1.13;1.13;;;9.70;99.90;;;;;;4977629;28;19926;-73
2024/03/22 09:16:28;;;;;;;1.48;1.38;;;9.70;99.90;;;;;;4983709;28;20121;-73
2024/03/22 09:18:54;;;;;;;0.60;0.60;;;9.70;99.90;;;;;;4964958;28;20053;-73
2024/03/22 09:21:19;;;;;;;1.50;1.40;;;9.80;99.90;;;;;;4947270;28;20046;-73
2024/03/22 09:23:45;;;;;;;0.40;0.40;;;9.70;99.90;;;;;;4966488;28;20393;-73
2024/03/22 09:26:11;;;;;;;0.40;0.40;;;9.70;99.90;;;;;;4979849;28;20061;-73
2024/03/22 09:28:37;;;;;;;0.50;0.50;;;9.70;99.90;;;;;;4975132;28;20038;-73
2024/03/22 09:31:09;;;;;;;2.08;1.98;;;9.70;99.90;;;;;;4986200;28;20614;-73
2024/03/22 09:33:35;;;;;;;1.27;1.27;;;9.70;99.90;;;;;;4975306;28;20046;-73
2024/03/22 09:36:01;;;;;;;0.55;0.55;;;9.70;99.90;;;;;;4979333;28;20078;-73
2024/03/22 09:38:27;;;;;;;;;;;9.70;99.90;;;;;;4985418;28;20034;-74
2024/03/22 09:40:54;;;;;;;1.13;1.00;;;9.70;99.90;;;;;;4959794;28;19918;-74
2024/03/22 09:43:21;;;;;;;0.65;0.65;;;9.70;99.90;;;;;;4991540;28;20050;-74
2024/03/22 09:45:50;;;;;;;0.75;0.55;;;9.70;99.90;;;;;;4973660;28;20097;-74
2024/03/22 09:48:19;;;;;;;1.10;1.05;;;9.70;99.90;;;;;;4961508;28;20076;-73
2024/03/22 09:50:49;;;;;;;0.90;0.68;;;9.70;99.90;;;;;;4976269;28;20043;-73
2024/03/22 09:53:25;;;;;;;1.05;0.95;;;9.70;99.90;;;;;;4982396;28;20034;-73
2024/03/22 09:55:52;;;;;;;;;;;9.70;99.90;;;;;;4974981;28;20049;-73
2024/03/22 09:58:18;;;;;;;0.40;0.40;;;9.60;99.90;;;;;;4966498;28;19968;-73
2024/03/22 10:00:44;;;;;;;0.50;0.50;;;9.60;99.90;;;;;;4994100;28;20285;-73
2024/03/22 10:03:13;;;;;;;0.60;0.60;;;9.60;99.90;;;;;;4978478;28;20045;-73
2024/03/22 10:05:38;;;;;;;0.50;0.50;;;9.70;99.90;;;;;;4974051;28;20436;-73
2024/03/22 10:08:05;;;;;;;0.50;0.50;;;9.60;99.90;;;;;;4975523;28;20100;-73
2024/03/22 10:10:32;;;;;;;0.85;0.85;;;9.70;99.90;;;;;;4963933;28;20042;-73
2024/03/22 10:13:00;;;;;;;0.98;0.98;;;9.70;99.90;;;;;;4989330;28;20117;-73
2024/03/22 10:15:26;;;;;;;0.73;0.73;;;9.70;99.90;;;;;;4951818;28;20519;-73
2024/03/22 10:17:56;;;;;;;0.60;0.60;;;9.70;99.90;;;;;;4976643;28;20046;-73
2024/03/22 10:20:22;;;;;;;0.52;0.52;;;9.80;99.90;;;;;;4981223;28;20196;-73
2024/03/22 10:22:58;;;;;;;0.45;0.45;;;9.80;99.90;;;;;;4956167;28;20046;-73
2024/03/22 10:25:25;;;;;;;;;;;9.90;99.90;;;;;;4966908;28;20147;-73
2024/03/22 10:27:50;;;;;;;0.70;0.70;;;9.80;99.90;;;;;;4976150;28;19928;-73
2024/03/22 10:30:19;;;;;;;0.47;0.47;;;10.20;99.90;;;;;;4961941;28;20030;-72
2024/03/22 10:32:45;;;;;;;0.50;0.50;;;9.80;99.90;;;;;;4978023;28;20048;-73
2024/03/22 10:35:13;;;;;;;0.50;0.50;;;9.80;99.90;;;;;;4990594;28;20042;-73
2024/03/22 10:37:39;;;;;;;0.25;0.25;;;9.80;99.90;;;;;;4972915;28;20118;-73
2024/03/22 10:40:09;;;;;;;0.52;0.52;;;9.90;99.90;;;;;;4973807;28;20053;-73
2024/03/22 10:42:40;;;;;;;0.40;0.40;;;9.80;99.90;;;;;;4981547;28;20504;-73
2024/03/22 10:45:08;;;;;;;0.98;0.98;;;9.80;99.90;;;;;;4963894;28;20450;-73
2024/03/22 10:47:34;;;;;;;1.00;1.00;;;9.90;99.90;;;;;;4959718;28;20161;-73
2024/03/22 10:50:07;;;;;;;0.88;0.88;;;9.80;99.90;;;;;;4973551;28;20045;-73
2024/03/22 10:52:56;;;;;;;3.35;0.88;;;9.80;99.90;;;;;;4962533;28;20129;-73
2024/03/22 10:55:53;;;;;;;0.60;0.60;;;9.80;99.90;;;;;;4965086;28;20537;-73
2024/03/22 10:58:22;;;;;;;0.45;0.45;;;9.90;99.90;;;;;;4972400;28;20123;-73
2024/03/22 11:00:51;;;;;;;0.55;0.55;;;9.90;99.90;;;;;;4977247;28;20077;-73
2024/03/22 11:03:21;;;;;;;1.15;1.15;;;9.90;99.90;;;;;;4983498;28;20041;-73
2024/03/22 11:05:48;;;;;;;0.40;0.40;;;10.00;99.90;;;;;;4974911;28;20803;-74
2024/03/22 11:08:22;;;;;;;0.50;0.50;;;10.10;99.90;;;;;;4976082;28;20129;-74
2024/03/22 11:10:48;;;;;;;0.55;0.55;;;10.10;99.90;;;;;;4977801;28;20031;-73
2024/03/22 11:13:17;;;;;;;0.60;0.60;;;10.00;99.90;;;;;;4966379;28;20034;-73
2024/03/22 11:15:43;;;;;;;0.57;0.57;;;10.00;99.90;;;;;;4964100;28;20053;-73
2024/03/22 11:18:09;;;;;;;0.40;0.40;;;10.00;99.90;;;;;;4975042;28;20042;-73
2024/03/22 11:20:37;;;;;;;0.40;0.40;;;10.00;99.90;;;;;;4991826;28;20042;-73
2024/03/22 11:23:07;;;;;;;0.60;0.60;;;10.00;99.90;;;;;;4962736;28;20049;-73
2024/03/22 11:25:33;;;;;;;0.73;0.73;;;10.00;99.90;;;;;;4962006;28;20117;-73
2024/03/22 11:28:00;;;;;;;0.40;0.40;;;10.00;99.90;;;;;;4968821;28;20039;-73
2024/03/22 11:30:28;;;;;;;0.55;0.55;;;10.00;99.90;;;;;;4969698;28;20030;-73
2024/03/22 11:32:54;;;;;;;1.75;1.65;;;10.00;99.90;;;;;;4979792;28;20046;-72
2024/03/22 11:35:19;;;;;;;;;;;10.00;99.90;;;;;;4998351;28;20042;-73
2024/03/22 11:37:45;;;;;;;0.40;0.40;;;10.00;99.90;;;;;;4990942;28;19921;-73
2024/03/22 11:40:12;;;;;;;0.50;0.50;;;10.00;99.90;;;;;;4980530;28;20053;-73
2024/03/22 11:42:49;;;;;;;0.40;0.40;;;9.90;99.90;;;;;;4964629;28;20043;-73
2024/03/22 11:45:17;;;;;;;0.40;0.40;;;9.90;99.90;;;;;;4986481;28;20129;-73
2024/03/22 11:47:43;;;;;;;0.30;0.30;;;9.90;99.90;;;;;;4971823;28;20041;-73
2024/03/22 11:50:13;;;;;;;0.60;0.60;;;9.90;99.90;;;;;;4970769;28;20038;-73
2024/03/22 11:52:41;;;;;;;0.50;0.50;;;9.80;99.90;;;;;;4953327;28;20074;-73
2024/03/22 11:55:06;;;;;;;0.75;0.75;;;9.80;99.90;;;;;;4975370;28;20381;-73
2024/03/22 11:57:32;;;;;;;0.50;0.50;;;9.80;99.90;;;;;;4976137;28;20065;-73
2024/03/22 12:00:04;;;;;;;0.30;0.30;;;9.80;99.90;;;;;;4967991;28;20057;-73
2024/03/22 12:02:32;;;;;;;0.20;0.20;;;9.90;99.90;;;;;;4970351;28;20042;-73
2024/03/22 12:04:57;;;;;;;0.50;0.50;;;9.90;99.90;;;;;;4980134;28;20042;-73
2024/03/22 12:07:24;;;;;;;0.40;0.40;;;9.90;99.90;;;;;;4971802;28;20042;-72
2024/03/22 12:09:49;;;;;;;1.17;1.17;;;9.90;99.90;;;;;;4961791;28;20046;-72
2024/03/22 12:12:15;;;;;;;0.45;0.45;;;9.90;99.90;;;;;;4996633;28;20593;-72
2024/03/22 12:14:41;;;;;;;0.50;0.50;;;9.90;99.90;;;;;;4978912;28;20042;-72
2024/03/22 12:17:07;;;;;;;0.50;0.50;;;9.80;99.90;;;;;;4975606;28;20132;-72
2024/03/22 12:19:33;;;;;;;;;;;9.80;99.90;;;;;;4973340;28;20431;-72
2024/03/22 12:21:59;;;;;;;0.30;0.30;;;9.80;99.90;;;;;;4983675;28;19932;-72
2024/03/22 12:24:29;;;;;;;0.57;0.57;;;9.90;99.90;;;;;;4983503;28;20030;-72
2024/03/22 12:26:55;;;;;;;0.45;0.43;;;10.00;99.90;;;;;;4991111;28;20065;-72
2024/03/22 12:29:21;;;;;;;0.60;0.60;;;10.00;99.90;;;;;;4971256;28;20156;-73
2024/03/22 12:31:47;;;;;;;0.35;0.35;;;10.10;99.90;;;;;;4961925;28;20175;-72
2024/03/22 12:34:13;;;;;;;1.30;0.63;;;10.20;99.90;;;;;;4973386;28;21177;-73
2024/03/22 12:36:39;;;;;;;0.50;0.50;;;10.20;99.90;;;;;;4963575;28;20034;-73
2024/03/22 12:39:05;;;;;;;;;;;10.20;99.90;;;;;;4960928;28;20076;-72
2024/03/22 12:41:32;;;;;;;0.50;0.50;;;10.10;99.90;;;;;;4996730;28;19926;-72
2024/03/22 12:43:59;;;;;;;0.68;0.68;;;10.00;99.90;;;;;;4959905;28;20571;-73
2024/03/22 12:46:25;;;;;;;0.52;0.52;;;10.00;99.90;;;;;;4965002;28;20031;-72
2024/03/22 12:48:51;;;;;;;0.30;0.30;;;9.90;99.90;;;;;;4971960;28;20108;-72
2024/03/22 12:51:17;;;;;;;0.40;0.40;;;9.90;99.90;;;;;;4966470;28;20049;-72
2024/03/22 12:53:42;;;;;;;0.63;0.63;;;9.90;99.90;;;;;;4991360;28;20401;-72